createdAt,value
2018-01-17T00:02:07.465Z,2.10
2018-01-17T00:04:34.027Z,2.10
2018-01-17T00:07:00.711Z,2.00
2018-01-17T00:09:27.701Z,2.00
2018-01-17T00:12:02.707Z,2.10
2018-01-17T00:14:29.698Z,2.10
2018-01-17T00:16:56.353Z,2.00
2018-01-17T00:19:23.023Z,2.00
2018-01-17T00:21:55.094Z,2.00
2018-01-17T00:24:22.151Z,2.10
2018-01-17T00:26:48.724Z,2.00
2018-01-17T00:29:15.311Z,1.90
2018-01-17T00:32:03.736Z,2.00
2018-01-17T00:34:30.371Z,2.00
2018-01-17T00:37:06.715Z,1.90
2018-01-17T00:39:45.238Z,2.00
2018-01-17T00:42:17.221Z,2.00
2018-01-17T00:44:44.086Z,1.90
2018-01-17T00:47:11.111Z,1.90
2018-01-17T00:49:37.746Z,1.90
2018-01-17T00:52:04.364Z,1.90
2018-01-17T00:54:31.259Z,1.90
2018-01-17T00:56:58.248Z,1.90
2018-01-17T00:59:24.900Z,1.90
2018-01-17T01:01:51.547Z,1.90
2018-01-17T01:04:18.136Z,1.90
2018-01-17T01:06:44.837Z,1.90
2018-01-17T01:09:11.855Z,1.90
2018-01-17T01:11:38.417Z,1.90
2018-01-17T01:14:05.130Z,1.80
2018-01-17T01:16:31.719Z,1.80
2018-01-17T01:21:50.830Z,1.80
2018-01-17T01:24:17.467Z,1.80
2018-01-17T01:26:44.067Z,1.80
2018-01-17T01:29:20.855Z,1.90
2018-01-17T01:31:47.875Z,1.80
2018-01-17T01:34:14.507Z,1.90
2018-01-17T01:36:41.497Z,1.90
2018-01-17T01:39:08.090Z,1.80
2018-01-17T01:41:35.720Z,1.80
2018-01-17T01:44:02.407Z,1.80
2018-01-17T01:46:29.385Z,1.80
2018-01-17T01:49:01.972Z,1.80
2018-01-17T01:51:29.494Z,1.80
2018-01-17T01:53:56.538Z,1.80
2018-01-17T01:56:23.517Z,1.80
2018-01-17T01:58:50.132Z,1.70
2018-01-17T02:01:17.147Z,1.70
2018-01-17T02:03:43.764Z,1.70
2018-01-17T02:06:10.365Z,1.70
2018-01-17T02:08:36.959Z,1.70
2018-01-17T02:11:03.579Z,1.70
2018-01-17T02:13:30.248Z,1.70
2018-01-17T02:16:11.449Z,1.60
2018-01-17T02:18:38.459Z,1.70
2018-01-17T02:21:05.090Z,1.70
2018-01-17T02:23:31.691Z,1.70
2018-01-17T02:25:58.295Z,1.70
2018-01-17T02:28:25.817Z,1.70
2018-01-17T02:30:52.465Z,1.80
2018-01-17T02:33:26.386Z,1.70
2018-01-17T02:35:52.991Z,1.70
2018-01-17T02:38:28.077Z,1.60
2018-01-17T02:40:55.086Z,1.70
2018-01-17T02:43:21.707Z,1.70
2018-01-17T02:45:48.644Z,1.60
2018-01-17T02:48:15.260Z,1.60
2018-01-17T02:50:42.270Z,1.60
2018-01-17T02:53:08.939Z,1.70
2018-01-17T02:55:36.016Z,1.60
2018-01-17T02:58:02.628Z,1.60
2018-01-17T03:00:29.640Z,1.70
2018-01-17T03:02:56.320Z,1.70
2018-01-17T03:05:22.947Z,1.70
2018-01-17T03:07:49.645Z,1.70
2018-01-17T03:10:18.206Z,1.70
2018-01-17T03:12:44.828Z,1.70
2018-01-17T03:15:11.467Z,1.70
2018-01-17T03:17:38.132Z,1.60
2018-01-17T03:20:04.727Z,1.70
2018-01-17T03:22:31.853Z,1.60
2018-01-17T03:25:04.494Z,1.60
2018-01-17T03:27:31.114Z,1.60
2018-01-17T03:29:57.719Z,1.60
2018-01-17T03:32:24.331Z,1.60
2018-01-17T03:34:50.931Z,1.60
2018-01-17T03:37:17.578Z,1.70
2018-01-17T03:39:44.175Z,1.60
2018-01-17T03:42:23.850Z,1.60
2018-01-17T03:44:50.463Z,1.60
2018-01-17T03:47:17.471Z,1.60
2018-01-17T03:49:44.115Z,1.60
2018-01-17T03:52:10.702Z,1.60
2018-01-17T03:54:37.295Z,1.50
2018-01-17T03:57:04.287Z,1.50
2018-01-17T03:59:30.969Z,1.50
2018-01-17T04:01:57.539Z,1.50
2018-01-17T04:04:24.548Z,1.50
2018-01-17T04:06:51.151Z,1.50
2018-01-17T04:09:17.847Z,1.40
2018-01-17T04:11:44.913Z,1.40
2018-01-17T04:14:11.934Z,1.40
2018-01-17T04:16:49.839Z,1.40
2018-01-17T04:19:16.446Z,1.40
2018-01-17T04:21:43.039Z,1.40
2018-01-17T04:24:10.136Z,1.40
2018-01-17T04:26:36.723Z,1.40
2018-01-17T04:29:07.707Z,1.40
2018-01-17T04:31:34.365Z,1.40
2018-01-17T04:34:00.965Z,1.40
2018-01-17T04:36:27.537Z,1.40
2018-01-17T04:38:54.483Z,1.40
2018-01-17T04:41:28.593Z,1.40
2018-01-17T04:43:55.522Z,1.40
2018-01-17T04:46:22.137Z,1.40
2018-01-17T04:48:49.654Z,1.50
2018-01-17T04:51:20.027Z,1.40
2018-01-17T04:53:46.614Z,1.40
2018-01-17T04:56:13.200Z,1.40
2018-01-17T04:58:51.457Z,1.40
2018-01-17T05:01:22.179Z,1.40
2018-01-17T05:03:48.812Z,1.40
2018-01-17T05:06:15.718Z,1.40
2018-01-17T05:08:42.328Z,1.40
2018-01-17T05:11:09.011Z,1.40
2018-01-17T05:13:35.675Z,1.40
2018-01-17T05:16:02.278Z,1.40
2018-01-17T05:18:28.887Z,1.40
2018-01-17T05:20:55.895Z,1.40
2018-01-17T05:23:22.526Z,1.50
2018-01-17T05:25:49.196Z,1.40
2018-01-17T05:28:15.857Z,1.50
2018-01-17T05:30:42.875Z,1.50
2018-01-17T05:33:09.547Z,1.50
2018-01-17T05:35:36.885Z,1.50
2018-01-17T05:38:04.004Z,1.50
2018-01-17T05:40:30.637Z,1.50
2018-01-17T05:42:57.495Z,1.50
2018-01-17T05:45:24.105Z,1.50
2018-01-17T05:47:50.734Z,1.50
2018-01-17T05:50:17.367Z,1.60
2018-01-17T05:52:43.984Z,1.60
2018-01-17T05:55:11.034Z,1.70
2018-01-17T05:57:38.023Z,1.60
2018-01-17T06:00:04.623Z,1.60
2018-01-17T06:02:31.304Z,1.70
2018-01-17T06:04:57.943Z,1.70
2018-01-17T06:07:24.566Z,1.80
2018-01-17T06:10:01.680Z,1.80
2018-01-17T06:12:28.298Z,1.70
2018-01-17T06:14:54.919Z,1.70
2018-01-17T06:17:21.629Z,1.80
2018-01-17T06:20:08.727Z,1.90
2018-01-17T06:22:35.378Z,1.90
2018-01-17T06:25:02.354Z,2.00
2018-01-17T06:27:28.974Z,2.10
2018-01-17T06:29:56.027Z,2.10
2018-01-17T06:32:22.639Z,2.00
2018-01-17T06:34:49.677Z,2.00
2018-01-17T06:37:16.376Z,2.00
2018-01-17T06:39:50.726Z,1.90
2018-01-17T06:45:19.043Z,1.70
2018-01-17T06:47:46.075Z,1.70
2018-01-17T06:50:13.341Z,1.70
2018-01-17T06:52:40.598Z,1.70
2018-01-17T06:55:07.912Z,1.70
2018-01-17T06:57:34.488Z,1.60
2018-01-17T07:00:01.071Z,1.60
2018-01-17T07:02:27.735Z,1.60
2018-01-17T07:04:54.343Z,1.60
2018-01-17T07:07:20.899Z,1.60
2018-01-17T07:09:47.563Z,1.50
2018-01-17T07:12:14.199Z,1.50
2018-01-17T07:14:40.832Z,1.50
2018-01-17T07:17:07.555Z,1.60
2018-01-17T07:19:34.182Z,1.50
2018-01-17T07:22:00.762Z,1.50
2018-01-17T07:24:27.375Z,1.50
2018-01-17T07:26:54.035Z,1.50
2018-01-17T07:29:20.612Z,1.50
2018-01-17T07:31:47.202Z,1.40
2018-01-17T07:34:14.151Z,1.40
2018-01-17T07:36:40.744Z,1.40
2018-01-17T07:39:07.335Z,1.50
2018-01-17T07:41:34.351Z,1.50
2018-01-17T07:44:00.951Z,1.50
2018-01-17T07:46:27.545Z,1.50
2018-01-17T07:48:54.234Z,1.50
2018-01-17T07:51:20.819Z,1.50
2018-01-17T07:53:47.407Z,1.50
2018-01-17T07:56:14.080Z,1.40
2018-01-17T07:58:40.604Z,1.40
2018-01-17T08:01:07.231Z,1.40
2018-01-17T08:03:33.863Z,1.50
2018-01-17T08:06:00.423Z,1.50
2018-01-17T08:08:27.051Z,1.50
2018-01-17T08:10:53.740Z,1.50
2018-01-17T08:13:20.730Z,1.50
2018-01-17T08:15:47.414Z,1.50
2018-01-17T08:18:14.051Z,1.50
2018-01-17T08:20:40.642Z,1.50
2018-01-17T08:23:07.307Z,1.50
2018-01-17T08:25:33.921Z,1.50
2018-01-17T08:28:00.547Z,1.50
2018-01-17T08:30:27.179Z,1.50
2018-01-17T08:32:53.835Z,1.50
2018-01-17T08:35:20.720Z,1.60
2018-01-17T08:37:47.286Z,1.50
2018-01-17T08:40:14.263Z,1.50
2018-01-17T08:42:41.179Z,1.50
2018-01-17T08:45:07.782Z,1.50
2018-01-17T08:47:40.180Z,1.50
2018-01-17T08:50:12.335Z,1.50
2018-01-17T08:52:38.920Z,1.50
2018-01-17T08:55:05.568Z,1.60
2018-01-17T08:57:32.224Z,1.60
2018-01-17T09:00:04.324Z,1.60
2018-01-17T09:02:31.350Z,1.70
2018-01-17T09:04:57.948Z,1.60
2018-01-17T09:07:24.539Z,1.70
2018-01-17T09:09:51.564Z,1.80
2018-01-17T09:12:18.245Z,1.80
2018-01-17T09:14:44.848Z,1.80
2018-01-17T09:17:11.523Z,1.80
2018-01-17T09:19:38.527Z,1.70
2018-01-17T09:22:05.155Z,1.70
2018-01-17T09:24:31.792Z,1.70
2018-01-17T09:26:58.381Z,1.70
2018-01-17T09:29:25.023Z,1.80
2018-01-17T09:31:51.625Z,1.80
2018-01-17T09:34:18.280Z,1.80
2018-01-17T09:36:45.002Z,1.80
2018-01-17T09:39:11.652Z,1.80
2018-01-17T09:41:38.343Z,1.80
2018-01-17T09:44:05.263Z,1.80
2018-01-17T09:46:31.903Z,1.90
2018-01-17T09:48:58.559Z,2.00
2018-01-17T09:51:35.404Z,2.00
2018-01-17T09:54:02.407Z,2.10
2018-01-17T09:56:28.982Z,2.10
2018-01-17T09:58:55.991Z,2.20
2018-01-17T10:01:22.583Z,2.30
2018-01-17T10:03:49.234Z,2.30
2018-01-17T10:06:15.843Z,2.30
2018-01-17T10:08:42.939Z,2.30
2018-01-17T10:11:09.578Z,2.30
2018-01-17T10:13:36.212Z,2.40
2018-01-17T10:16:02.803Z,2.50
2018-01-17T10:18:29.825Z,2.50
2018-01-17T10:20:56.476Z,2.60
2018-01-17T10:23:23.132Z,2.70
2018-01-17T10:25:50.170Z,2.80
2018-01-17T10:28:16.767Z,2.80
2018-01-17T10:30:43.427Z,3.00
2018-01-17T10:33:10.014Z,3.10
2018-01-17T10:35:36.615Z,3.20
2018-01-17T10:38:03.288Z,3.20
2018-01-17T10:40:29.923Z,3.30
2018-01-17T10:42:56.831Z,3.40
2018-01-17T10:45:23.436Z,3.40
2018-01-17T10:47:50.097Z,3.50
2018-01-17T10:50:16.723Z,3.60
2018-01-17T10:52:43.284Z,3.60
2018-01-17T10:55:19.888Z,3.60
2018-01-17T10:57:46.885Z,3.60
2018-01-17T11:00:13.525Z,3.60
2018-01-17T11:02:40.503Z,3.60
2018-01-17T11:05:07.506Z,3.60
2018-01-17T11:07:40.443Z,3.60
2018-01-17T11:10:07.472Z,3.70
2018-01-17T11:12:34.092Z,3.70
2018-01-17T11:15:00.671Z,3.70
2018-01-17T11:17:27.667Z,3.80
2018-01-17T11:19:54.260Z,3.80
2018-01-17T11:22:20.896Z,3.80
2018-01-17T11:24:47.520Z,3.80
2018-01-17T11:27:14.487Z,3.80
2018-01-17T11:29:41.114Z,3.80
2018-01-17T11:32:07.784Z,3.90
2018-01-17T11:34:34.423Z,3.90
2018-01-17T11:37:01.046Z,3.90
2018-01-17T11:39:27.667Z,3.90
2018-01-17T11:41:54.339Z,3.90
2018-01-17T11:44:21.015Z,3.90
2018-01-17T11:46:47.606Z,3.90
2018-01-17T11:49:14.176Z,3.90
2018-01-17T11:52:03.996Z,3.90
2018-01-17T11:54:31.012Z,4.00
2018-01-17T11:57:17.044Z,4.00
2018-01-17T11:59:43.689Z,4.00
2018-01-17T12:02:10.300Z,4.00
2018-01-17T12:04:37.308Z,3.90
2018-01-17T12:07:03.885Z,3.90
2018-01-17T12:09:30.845Z,3.90
2018-01-17T12:11:58.143Z,3.90
2018-01-17T12:14:24.763Z,3.90
2018-01-17T12:16:51.408Z,3.90
2018-01-17T12:19:18.324Z,3.90
2018-01-17T12:21:45.043Z,4.00
2018-01-17T12:24:12.110Z,4.00
2018-01-17T12:26:38.732Z,4.00
2018-01-17T12:29:24.591Z,4.10
2018-01-17T12:31:51.199Z,4.10
2018-01-17T12:34:17.774Z,4.10
2018-01-17T12:36:44.432Z,4.20
2018-01-17T12:39:11.480Z,4.20
2018-01-17T12:41:38.446Z,4.10
2018-01-17T12:44:05.076Z,4.00
2018-01-17T12:46:32.120Z,4.00
2018-01-17T12:48:58.741Z,3.90
2018-01-17T12:51:25.852Z,3.80
2018-01-17T12:53:52.540Z,3.70
2018-01-17T12:56:19.553Z,3.70
2018-01-17T12:58:46.161Z,3.60
2018-01-17T13:01:12.799Z,3.50
2018-01-17T13:03:39.375Z,3.60
2018-01-17T13:06:06.048Z,3.60
2018-01-17T13:08:33.137Z,3.60
2018-01-17T13:13:58.502Z,3.60
2018-01-17T13:16:25.119Z,3.50
2018-01-17T13:18:51.680Z,3.50
2018-01-17T13:21:18.343Z,3.40
2018-01-17T13:23:45.323Z,3.40
2018-01-17T13:26:11.912Z,3.50
2018-01-17T13:28:39.278Z,3.50
2018-01-17T13:31:06.303Z,3.50
2018-01-17T13:33:36.082Z,3.50
2018-01-17T13:36:02.747Z,3.50
2018-01-17T13:38:29.422Z,3.50
2018-01-17T13:40:55.987Z,3.50
2018-01-17T13:43:22.606Z,3.50
2018-01-17T13:45:49.337Z,3.60
2018-01-17T13:48:16.207Z,3.60
2018-01-17T13:50:42.794Z,3.50
2018-01-17T13:53:09.443Z,3.60
2018-01-17T13:55:36.776Z,3.60
2018-01-17T13:58:03.392Z,3.60
2018-01-17T14:00:29.987Z,3.60
2018-01-17T14:02:59.015Z,3.50
2018-01-17T14:05:37.095Z,3.50
2018-01-17T14:08:04.072Z,3.60
2018-01-17T14:10:30.696Z,3.60
2018-01-17T14:12:57.331Z,3.60
2018-01-17T14:15:23.964Z,3.60
2018-01-17T14:17:50.617Z,3.60
2018-01-17T14:20:17.197Z,3.50
2018-01-17T14:22:44.210Z,3.50
2018-01-17T14:25:10.867Z,3.50
2018-01-17T14:27:37.532Z,3.50
2018-01-17T14:30:04.554Z,3.40
2018-01-17T14:32:31.169Z,3.40
2018-01-17T14:34:57.861Z,3.30
2018-01-17T14:37:24.887Z,3.30
2018-01-17T14:39:51.475Z,3.30
2018-01-17T14:42:18.053Z,3.30
2018-01-17T14:44:44.696Z,3.30
2018-01-17T14:47:11.302Z,3.30
2018-01-17T14:49:41.967Z,3.30
2018-01-17T14:52:08.590Z,3.30
2018-01-17T14:54:35.198Z,3.30
2018-01-17T14:57:01.864Z,3.30
2018-01-17T14:59:28.469Z,3.30
2018-01-17T15:01:55.079Z,3.30
2018-01-17T15:04:22.083Z,3.20
2018-01-17T15:06:59.188Z,3.20
2018-01-17T15:09:25.835Z,3.20
2018-01-17T15:11:52.818Z,3.20
2018-01-17T15:14:19.447Z,3.20
2018-01-17T15:16:46.038Z,3.10
2018-01-17T15:19:12.631Z,3.10
2018-01-17T15:21:39.314Z,3.00
2018-01-17T15:24:05.984Z,3.00
2018-01-17T15:26:32.979Z,3.00
2018-01-17T15:28:59.640Z,3.00
2018-01-17T15:31:26.214Z,3.00
2018-01-17T15:33:53.207Z,3.00
2018-01-17T15:36:32.178Z,2.90
2018-01-17T15:38:59.191Z,2.90
2018-01-17T15:41:25.806Z,2.90
2018-01-17T15:43:52.483Z,2.90
2018-01-17T15:46:19.135Z,2.90
2018-01-17T15:48:46.159Z,2.90
2018-01-17T15:51:12.826Z,2.90
2018-01-17T15:53:39.836Z,2.80
2018-01-17T15:56:06.455Z,2.80
2018-01-17T15:58:33.141Z,2.70
2018-01-17T16:01:00.160Z,2.70
2018-01-17T16:03:27.043Z,2.70
2018-01-17T16:05:54.091Z,2.70
2018-01-17T16:08:20.717Z,2.60
2018-01-17T16:14:00.700Z,2.60
2018-01-17T16:16:27.660Z,2.60
2018-01-17T16:18:54.248Z,2.60
2018-01-17T16:21:20.863Z,2.60
2018-01-17T16:23:47.564Z,2.60
2018-01-17T16:26:14.654Z,2.60
2018-01-17T16:28:41.260Z,2.60
2018-01-17T16:31:07.919Z,2.60
2018-01-17T16:33:34.574Z,2.60
2018-01-17T16:36:01.211Z,2.50
2018-01-17T16:38:27.793Z,2.50
2018-01-17T16:40:54.804Z,2.50
2018-01-17T16:43:21.477Z,2.50
2018-01-17T16:45:48.452Z,2.40
2018-01-17T16:48:15.023Z,2.40
2018-01-17T16:50:41.740Z,2.40
2018-01-17T16:53:08.358Z,2.30
2018-01-17T16:55:34.971Z,2.30
2018-01-17T16:58:01.651Z,2.40
2018-01-17T17:00:28.255Z,2.30
2018-01-17T17:02:55.299Z,2.10
2018-01-17T17:05:22.397Z,2.10
2018-01-17T17:07:48.975Z,2.00
2018-01-17T17:10:16.035Z,2.00
2018-01-17T17:12:43.031Z,2.10
2018-01-17T17:15:09.653Z,2.10
2018-01-17T17:17:36.311Z,2.10
2018-01-17T17:20:02.949Z,2.10
2018-01-17T17:22:29.569Z,2.20
2018-01-17T17:24:56.503Z,2.20
2018-01-17T17:27:23.123Z,2.20
2018-01-17T17:29:50.139Z,2.20
2018-01-17T17:32:16.779Z,2.20
2018-01-17T17:34:43.403Z,2.20
2018-01-17T17:37:10.043Z,2.20
2018-01-17T17:39:36.675Z,2.10
2018-01-17T17:42:03.337Z,2.20
2018-01-17T17:44:29.941Z,2.10
2018-01-17T17:46:56.562Z,2.10
2018-01-17T17:49:23.166Z,2.10
2018-01-17T17:51:50.245Z,1.90
2018-01-17T17:54:16.823Z,1.90
2018-01-17T17:56:43.448Z,2.00
2018-01-17T17:59:10.104Z,1.90
2018-01-17T18:01:36.683Z,1.90
2018-01-17T18:04:03.299Z,1.90
2018-01-17T18:06:29.907Z,1.90
2018-01-17T18:08:56.511Z,1.90
2018-01-17T18:11:23.080Z,1.80
2018-01-17T18:13:49.778Z,1.80
2018-01-17T18:16:37.766Z,1.80
2018-01-17T18:19:04.483Z,1.90
2018-01-17T18:21:31.088Z,1.90
2018-01-17T18:23:57.651Z,1.80
2018-01-17T18:26:44.927Z,1.80
2018-01-17T18:29:11.563Z,1.80
2018-01-17T18:31:49.148Z,1.80
2018-01-17T18:34:23.792Z,1.80
2018-01-17T18:36:51.208Z,1.80
2018-01-17T18:39:17.816Z,1.80
2018-01-17T18:41:44.430Z,1.80
2018-01-17T18:44:11.476Z,1.80
2018-01-17T18:46:57.336Z,1.70
2018-01-17T18:49:23.937Z,1.70
2018-01-17T18:51:50.636Z,1.70
2018-01-17T18:54:17.587Z,1.70
2018-01-17T18:56:44.585Z,1.70
2018-01-17T18:59:11.544Z,1.70
2018-01-17T19:01:38.159Z,1.80
2018-01-17T19:04:04.808Z,1.80
2018-01-17T19:06:31.552Z,1.80
2018-01-17T19:08:58.136Z,1.70
2018-01-17T19:11:25.184Z,1.70
2018-01-17T19:13:56.450Z,1.70
2018-01-17T19:16:23.019Z,1.70
2018-01-17T19:18:49.653Z,1.70
2018-01-17T19:21:16.339Z,1.70
2018-01-17T19:23:43.306Z,1.70
2018-01-17T19:26:09.927Z,1.70
2018-01-17T19:28:36.980Z,1.70
2018-01-17T19:31:03.966Z,1.70
2018-01-17T19:33:30.597Z,1.70
2018-01-17T19:36:18.997Z,1.70
2018-01-17T19:38:46.023Z,1.70
2018-01-17T19:41:13.878Z,1.70
2018-01-17T19:43:40.564Z,1.70
2018-01-17T19:46:07.580Z,1.70
2018-01-17T19:48:34.194Z,1.70
2018-01-17T19:51:00.856Z,1.70
2018-01-17T19:53:27.475Z,1.70
2018-01-17T19:55:54.061Z,1.70
2018-01-17T19:58:21.118Z,1.80
2018-01-17T20:00:48.127Z,1.70
2018-01-17T20:03:14.799Z,1.70
2018-01-17T20:05:41.491Z,1.70
2018-01-17T20:08:08.094Z,1.80
2018-01-17T20:10:34.703Z,1.80
2018-01-17T20:13:01.746Z,1.90
2018-01-17T20:15:28.767Z,1.90
2018-01-17T20:17:55.387Z,1.90
2018-01-17T20:20:22.139Z,2.00
2018-01-17T20:22:54.388Z,2.00
2018-01-17T20:25:21.008Z,2.10
2018-01-17T20:27:47.667Z,2.10
2018-01-17T20:30:27.432Z,2.10
2018-01-17T20:32:54.073Z,2.10
2018-01-17T20:35:20.677Z,2.10
2018-01-17T20:37:47.272Z,2.20
2018-01-17T20:40:26.816Z,2.20
2018-01-17T20:42:53.483Z,2.30
2018-01-17T20:45:21.112Z,2.30
2018-01-17T20:47:47.775Z,2.40
2018-01-17T20:50:14.363Z,2.30
2018-01-17T20:52:40.971Z,2.30
2018-01-17T20:55:13.318Z,2.30
2018-01-17T20:57:40.378Z,2.20
2018-01-17T21:00:06.943Z,2.20
2018-01-17T21:02:33.539Z,2.20
2018-01-17T21:05:17.735Z,2.20
2018-01-17T21:07:44.343Z,2.30
2018-01-17T21:10:10.987Z,2.30
2018-01-17T21:12:37.931Z,2.40
2018-01-17T21:15:04.530Z,2.40
2018-01-17T21:17:31.132Z,2.40
2018-01-17T21:19:59.729Z,2.40
2018-01-17T21:22:26.360Z,2.30
2018-01-17T21:25:06.163Z,2.30
2018-01-17T21:27:32.764Z,2.30
2018-01-17T21:29:59.438Z,2.20
2018-01-17T21:32:28.375Z,2.30
2018-01-17T21:34:54.992Z,2.30
2018-01-17T21:37:21.568Z,2.30
2018-01-17T21:39:48.549Z,2.30
2018-01-17T21:42:21.219Z,2.40
2018-01-17T21:44:55.035Z,2.40
2018-01-17T21:47:22.049Z,2.40
2018-01-17T21:49:48.659Z,2.40
2018-01-17T21:52:15.343Z,2.30
2018-01-17T21:54:42.405Z,2.30
2018-01-17T21:57:08.997Z,2.30
2018-01-17T21:59:35.714Z,2.30
2018-01-17T22:02:02.327Z,2.30
2018-01-17T22:04:28.979Z,2.20
2018-01-17T22:06:55.579Z,2.20
2018-01-17T22:09:22.591Z,2.20
2018-01-17T22:11:49.595Z,2.20
2018-01-17T22:14:16.202Z,2.30
2018-01-17T22:16:42.810Z,2.30
2018-01-17T22:19:09.484Z,2.30
2018-01-17T22:21:41.567Z,2.40
2018-01-17T22:24:08.552Z,2.40
2018-01-17T22:26:35.209Z,2.50
2018-01-17T22:29:01.924Z,2.50
2018-01-17T22:31:28.607Z,2.50
2018-01-17T22:33:55.263Z,2.50
2018-01-17T22:36:22.295Z,2.50
2018-01-17T22:39:02.811Z,2.60
2018-01-17T22:41:29.422Z,2.60
2018-01-17T22:43:56.012Z,2.60
2018-01-17T22:46:26.408Z,2.60
2018-01-17T22:48:53.034Z,2.60
2018-01-17T22:51:19.607Z,2.60
2018-01-17T22:53:46.211Z,2.60
2018-01-17T22:56:12.825Z,2.60
2018-01-17T22:58:39.856Z,2.60
2018-01-17T23:01:06.519Z,2.60
2018-01-17T23:03:33.079Z,2.70
2018-01-17T23:05:59.691Z,2.60
2018-01-17T23:08:26.658Z,2.60
2018-01-17T23:10:53.252Z,2.60
2018-01-17T23:13:19.894Z,2.50
2018-01-17T23:15:46.967Z,2.50
2018-01-17T23:18:13.596Z,2.60
2018-01-17T23:20:40.226Z,2.50
2018-01-17T23:23:12.540Z,2.50
2018-01-17T23:25:39.121Z,2.50
2018-01-17T23:28:05.731Z,2.50
2018-01-17T23:30:32.384Z,2.50
2018-01-17T23:32:59.035Z,2.50
2018-01-17T23:35:26.080Z,2.50
2018-01-17T23:37:52.731Z,2.50
2018-01-17T23:40:19.755Z,2.50
2018-01-17T23:42:46.388Z,2.50
2018-01-17T23:45:13.055Z,2.50
2018-01-17T23:47:41.083Z,2.50
2018-01-17T23:50:07.739Z,2.50
2018-01-17T23:52:34.371Z,2.50
2018-01-17T23:55:00.979Z,2.50
2018-01-17T23:57:27.655Z,2.50
2018-01-17T23:59:54.236Z,2.40
